sensor_id;sensor_type;location;lat;lon;timestamp;temperature;humidity
65078;DHT22;51672;51.230;-2.322;2023-01-31T00:01:22;4.30;99.90
65078;DHT22;51672;51.230;-2.322;2023-01-31T00:05:04;4.30;99.90
65078;DHT22;51672;51.230;-2.322;2023-01-31T00:08:48;4.40;99.90
65078;DHT22;51672;51.230;-2.322;2023-01-31T00:12:30;4.40;99.90
65078;DHT22;51672;51.230;-2.322;2023-01-31T00:16:14;4.40;99.90
65078;DHT22;51672;51.230;-2.322;2023-01-31T00:19:56;4.50;99.90
65078;DHT22;51672;51.230;-2.322;2023-01-31T00:23:39;4.60;99.90
65078;DHT22;51672;51.230;-2.322;2023-01-31T00:27:21;4.60;99.90
65078;DHT22;51672;51.230;-2.322;2023-01-31T00:31:03;4.60;99.90
65078;DHT22;51672;51.230;-2.322;2023-01-31T00:34:46;4.70;99.90
65078;DHT22;51672;51.230;-2.322;2023-01-31T00:38:28;4.70;99.90
65078;DHT22;51672;51.230;-2.322;2023-01-31T00:42:10;4.70;99.90
65078;DHT22;51672;51.230;-2.322;2023-01-31T00:45:52;4.80;99.90
65078;DHT22;51672;51.230;-2.322;2023-01-31T00:49:34;4.80;99.90
65078;DHT22;51672;51.230;-2.322;2023-01-31T00:53:16;4.90;99.90
65078;DHT22;51672;51.230;-2.322;2023-01-31T00:57:03;4.90;99.90
65078;DHT22;51672;51.230;-2.322;2023-01-31T01:00:46;4.90;99.90
65078;DHT22;51672;51.230;-2.322;2023-01-31T01:04:28;4.90;99.90
65078;DHT22;51672;51.230;-2.322;2023-01-31T01:08:10;4.90;99.90
65078;DHT22;51672;51.230;-2.322;2023-01-31T01:11:52;5.00;99.90
65078;DHT22;51672;51.230;-2.322;2023-01-31T01:15:37;5.10;99.90
65078;DHT22;51672;51.230;-2.322;2023-01-31T01:19:19;5.10;99.90
65078;DHT22;51672;51.230;-2.322;2023-01-31T01:23:02;5.30;99.90
65078;DHT22;51672;51.230;-2.322;2023-01-31T01:26:44;5.30;99.90
65078;DHT22;51672;51.230;-2.322;2023-01-31T01:30:27;5.40;99.90
65078;DHT22;51672;51.230;-2.322;2023-01-31T01:34:14;5.50;99.90
65078;DHT22;51672;51.230;-2.322;2023-01-31T01:37:56;5.50;99.90
65078;DHT22;51672;51.230;-2.322;2023-01-31T01:41:39;5.50;99.90
65078;DHT22;51672;51.230;-2.322;2023-01-31T01:45:21;5.60;99.90
65078;DHT22;51672;51.230;-2.322;2023-01-31T01:49:17;5.60;99.90
65078;DHT22;51672;51.230;-2.322;2023-01-31T01:53:21;5.70;99.90
65078;DHT22;51672;51.230;-2.322;2023-01-31T01:57:05;5.70;99.90
65078;DHT22;51672;51.230;-2.322;2023-01-31T02:00:49;5.80;99.90
65078;DHT22;51672;51.230;-2.322;2023-01-31T02:04:34;5.80;99.90
65078;DHT22;51672;51.230;-2.322;2023-01-31T02:08:20;5.80;99.90
65078;DHT22;51672;51.230;-2.322;2023-01-31T02:12:02;5.80;99.90
65078;DHT22;51672;51.230;-2.322;2023-01-31T02:15:45;5.80;99.90
65078;DHT22;51672;51.230;-2.322;2023-01-31T02:28:04;5.60;99.90
65078;DHT22;51672;51.230;-2.322;2023-01-31T02:41:14;5.60;99.90
65078;DHT22;51672;51.230;-2.322;2023-01-31T02:44:43;5.70;99.90
65078;DHT22;51672;51.230;-2.322;2023-01-31T02:48:50;5.70;99.90
65078;DHT22;51672;51.230;-2.322;2023-01-31T02:56:49;5.70;99.90
65078;DHT22;51672;51.230;-2.322;2023-01-31T03:00:33;5.60;99.90
65078;DHT22;51672;51.230;-2.322;2023-01-31T03:04:17;5.50;99.90
65078;DHT22;51672;51.230;-2.322;2023-01-31T03:08:01;5.50;99.90
65078;DHT22;51672;51.230;-2.322;2023-01-31T03:19:49;5.70;99.90
65078;DHT22;51672;51.230;-2.322;2023-01-31T03:23:34;5.60;99.90
65078;DHT22;51672;51.230;-2.322;2023-01-31T03:27:20;5.50;99.90
65078;DHT22;51672;51.230;-2.322;2023-01-31T03:31:20;5.40;99.90
65078;DHT22;51672;51.230;-2.322;2023-01-31T03:35:04;5.30;99.90
65078;DHT22;51672;51.230;-2.322;2023-01-31T03:42:50;5.10;99.90
65078;DHT22;51672;51.230;-2.322;2023-01-31T03:46:56;5.10;99.90
65078;DHT22;51672;51.230;-2.322;2023-01-31T03:50:48;5.10;99.90
65078;DHT22;51672;51.230;-2.322;2023-01-31T03:54:38;5.10;99.90
65078;DHT22;51672;51.230;-2.322;2023-01-31T03:58:26;5.20;99.90
65078;DHT22;51672;51.230;-2.322;2023-01-31T04:02:11;5.20;99.90
65078;DHT22;51672;51.230;-2.322;2023-01-31T04:05:55;5.30;99.90
65078;DHT22;51672;51.230;-2.322;2023-01-31T04:09:38;5.30;99.90
65078;DHT22;51672;51.230;-2.322;2023-01-31T04:13:22;5.20;99.90
65078;DHT22;51672;51.230;-2.322;2023-01-31T04:17:38;5.10;99.90
65078;DHT22;51672;51.230;-2.322;2023-01-31T04:21:21;5.00;99.90
65078;DHT22;51672;51.230;-2.322;2023-01-31T04:25:03;4.90;99.90
65078;DHT22;51672;51.230;-2.322;2023-01-31T04:28:46;4.80;99.90
65078;DHT22;51672;51.230;-2.322;2023-01-31T04:32:28;4.70;99.90
65078;DHT22;51672;51.230;-2.322;2023-01-31T04:36:10;4.70;99.90
65078;DHT22;51672;51.230;-2.322;2023-01-31T04:39:52;4.70;99.90
65078;DHT22;51672;51.230;-2.322;2023-01-31T04:43:34;4.80;99.90
65078;DHT22;51672;51.230;-2.322;2023-01-31T04:47:17;4.80;99.90
65078;DHT22;51672;51.230;-2.322;2023-01-31T04:50:59;4.80;99.90
65078;DHT22;51672;51.230;-2.322;2023-01-31T04:54:41;4.80;99.90
65078;DHT22;51672;51.230;-2.322;2023-01-31T04:58:23;4.70;99.90
65078;DHT22;51672;51.230;-2.322;2023-01-31T05:02:05;4.70;99.90
65078;DHT22;51672;51.230;-2.322;2023-01-31T05:05:48;4.70;99.90
65078;DHT22;51672;51.230;-2.322;2023-01-31T05:09:30;4.70;99.90
65078;DHT22;51672;51.230;-2.322;2023-01-31T05:13:12;4.70;99.90
65078;DHT22;51672;51.230;-2.322;2023-01-31T05:16:55;4.70;99.90
65078;DHT22;51672;51.230;-2.322;2023-01-31T05:20:37;4.80;99.90
65078;DHT22;51672;51.230;-2.322;2023-01-31T05:24:27;4.90;99.90
65078;DHT22;51672;51.230;-2.322;2023-01-31T05:28:10;5.00;99.90
65078;DHT22;51672;51.230;-2.322;2023-01-31T05:31:54;5.10;99.90
65078;DHT22;51672;51.230;-2.322;2023-01-31T05:35:36;5.30;99.90
65078;DHT22;51672;51.230;-2.322;2023-01-31T05:39:20;5.40;99.90
65078;DHT22;51672;51.230;-2.322;2023-01-31T05:43:03;5.50;99.90
65078;DHT22;51672;51.230;-2.322;2023-01-31T05:46:45;5.50;99.90
65078;DHT22;51672;51.230;-2.322;2023-01-31T05:50:27;5.50;99.90
65078;DHT22;51672;51.230;-2.322;2023-01-31T05:54:11;5.50;99.90
65078;DHT22;51672;51.230;-2.322;2023-01-31T05:57:53;5.60;99.90
65078;DHT22;51672;51.230;-2.322;2023-01-31T06:01:35;5.60;99.90
65078;DHT22;51672;51.230;-2.322;2023-01-31T06:05:17;5.60;99.90
65078;DHT22;51672;51.230;-2.322;2023-01-31T06:09:00;5.70;99.90
65078;DHT22;51672;51.230;-2.322;2023-01-31T06:12:42;5.80;99.90
65078;DHT22;51672;51.230;-2.322;2023-01-31T06:16:24;5.80;99.90
65078;DHT22;51672;51.230;-2.322;2023-01-31T06:20:06;5.90;99.90
65078;DHT22;51672;51.230;-2.322;2023-01-31T06:23:48;6.00;99.90
65078;DHT22;51672;51.230;-2.322;2023-01-31T06:27:32;6.10;99.90
65078;DHT22;51672;51.230;-2.322;2023-01-31T06:31:14;6.20;99.90
65078;DHT22;51672;51.230;-2.322;2023-01-31T06:34:56;6.30;99.90
65078;DHT22;51672;51.230;-2.322;2023-01-31T06:38:39;6.40;99.90
65078;DHT22;51672;51.230;-2.322;2023-01-31T06:42:21;6.40;99.90
65078;DHT22;51672;51.230;-2.322;2023-01-31T06:46:03;6.50;99.90
65078;DHT22;51672;51.230;-2.322;2023-01-31T06:49:45;6.50;99.90
65078;DHT22;51672;51.230;-2.322;2023-01-31T06:53:27;6.70;99.90
65078;DHT22;51672;51.230;-2.322;2023-01-31T06:57:09;6.70;99.90
65078;DHT22;51672;51.230;-2.322;2023-01-31T07:00:51;6.80;99.90
65078;DHT22;51672;51.230;-2.322;2023-01-31T07:04:34;6.70;99.90
65078;DHT22;51672;51.230;-2.322;2023-01-31T07:08:16;6.60;99.90
65078;DHT22;51672;51.230;-2.322;2023-01-31T07:11:58;6.50;99.90
65078;DHT22;51672;51.230;-2.322;2023-01-31T07:15:40;6.50;99.90
65078;DHT22;51672;51.230;-2.322;2023-01-31T07:19:22;6.40;99.90
65078;DHT22;51672;51.230;-2.322;2023-01-31T07:23:04;6.40;99.90
65078;DHT22;51672;51.230;-2.322;2023-01-31T07:26:46;6.40;99.90
65078;DHT22;51672;51.230;-2.322;2023-01-31T07:30:28;6.40;99.90
65078;DHT22;51672;51.230;-2.322;2023-01-31T07:34:11;6.50;99.90
65078;DHT22;51672;51.230;-2.322;2023-01-31T07:37:53;6.60;99.90
65078;DHT22;51672;51.230;-2.322;2023-01-31T07:41:35;6.70;99.90
65078;DHT22;51672;51.230;-2.322;2023-01-31T07:45:17;6.90;99.90
65078;DHT22;51672;51.230;-2.322;2023-01-31T07:49:04;6.90;99.90
65078;DHT22;51672;51.230;-2.322;2023-01-31T07:52:46;7.00;99.90
65078;DHT22;51672;51.230;-2.322;2023-01-31T07:56:29;7.10;99.90
65078;DHT22;51672;51.230;-2.322;2023-01-31T08:00:13;7.20;99.90
65078;DHT22;51672;51.230;-2.322;2023-01-31T08:04:21;7.20;99.90
65078;DHT22;51672;51.230;-2.322;2023-01-31T08:08:03;7.30;99.90
65078;DHT22;51672;51.230;-2.322;2023-01-31T08:11:51;7.30;99.90
65078;DHT22;51672;51.230;-2.322;2023-01-31T08:15:33;7.30;99.90
65078;DHT22;51672;51.230;-2.322;2023-01-31T08:19:15;7.30;99.90
65078;DHT22;51672;51.230;-2.322;2023-01-31T08:22:57;7.30;99.90
65078;DHT22;51672;51.230;-2.322;2023-01-31T08:26:42;7.40;99.90
65078;DHT22;51672;51.230;-2.322;2023-01-31T08:30:26;7.40;99.90
65078;DHT22;51672;51.230;-2.322;2023-01-31T08:34:08;7.50;99.90
65078;DHT22;51672;51.230;-2.322;2023-01-31T08:37:50;7.50;99.90
65078;DHT22;51672;51.230;-2.322;2023-01-31T08:41:33;7.60;99.90
65078;DHT22;51672;51.230;-2.322;2023-01-31T08:45:16;7.60;99.90
65078;DHT22;51672;51.230;-2.322;2023-01-31T08:48:59;7.70;99.90
65078;DHT22;51672;51.230;-2.322;2023-01-31T08:52:42;7.80;99.90
65078;DHT22;51672;51.230;-2.322;2023-01-31T08:56:24;7.90;99.90
65078;DHT22;51672;51.230;-2.322;2023-01-31T09:00:07;8.10;99.90
65078;DHT22;51672;51.230;-2.322;2023-01-31T09:03:49;8.20;99.90
65078;DHT22;51672;51.230;-2.322;2023-01-31T09:07:37;8.30;99.90
65078;DHT22;51672;51.230;-2.322;2023-01-31T09:11:19;8.40;99.90
65078;DHT22;51672;51.230;-2.322;2023-01-31T09:15:03;8.40;99.90
65078;DHT22;51672;51.230;-2.322;2023-01-31T09:18:45;8.40;99.90
65078;DHT22;51672;51.230;-2.322;2023-01-31T09:22:29;8.50;99.90
65078;DHT22;51672;51.230;-2.322;2023-01-31T09:26:12;8.60;99.90
65078;DHT22;51672;51.230;-2.322;2023-01-31T09:29:55;8.70;99.90
65078;DHT22;51672;51.230;-2.322;2023-01-31T09:33:37;8.70;99.90
65078;DHT22;51672;51.230;-2.322;2023-01-31T09:37:19;8.70;99.90
65078;DHT22;51672;51.230;-2.322;2023-01-31T09:49:53;8.80;99.90
65078;DHT22;51672;51.230;-2.322;2023-01-31T10:33:47;9.80;99.90
65078;DHT22;51672;51.230;-2.322;2023-01-31T11:17:30;11.20;99.90
65078;DHT22;51672;51.230;-2.322;2023-01-31T17:05:44;7.90;99.90
65078;DHT22;51672;51.230;-2.322;2023-01-31T17:09:43;7.80;99.90
65078;DHT22;51672;51.230;-2.322;2023-01-31T17:13:52;7.70;99.90
65078;DHT22;51672;51.230;-2.322;2023-01-31T17:17:39;7.60;99.90
65078;DHT22;51672;51.230;-2.322;2023-01-31T17:21:39;7.50;99.90
65078;DHT22;51672;51.230;-2.322;2023-01-31T17:25:25;7.30;99.90
65078;DHT22;51672;51.230;-2.322;2023-01-31T17:29:09;7.30;99.90
65078;DHT22;51672;51.230;-2.322;2023-01-31T17:32:51;7.20;99.90
65078;DHT22;51672;51.230;-2.322;2023-01-31T17:36:33;7.10;99.90
65078;DHT22;51672;51.230;-2.322;2023-01-31T17:40:18;7.00;99.90
65078;DHT22;51672;51.230;-2.322;2023-01-31T17:44:00;6.90;99.90
65078;DHT22;51672;51.230;-2.322;2023-01-31T17:47:44;6.80;99.90
65078;DHT22;51672;51.230;-2.322;2023-01-31T17:51:27;6.80;99.90
65078;DHT22;51672;51.230;-2.322;2023-01-31T17:55:09;6.70;99.90
65078;DHT22;51672;51.230;-2.322;2023-01-31T17:58:51;6.70;99.90
65078;DHT22;51672;51.230;-2.322;2023-01-31T18:02:34;6.60;99.90
65078;DHT22;51672;51.230;-2.322;2023-01-31T18:06:16;6.60;99.90
65078;DHT22;51672;51.230;-2.322;2023-01-31T18:09:58;6.60;99.90
65078;DHT22;51672;51.230;-2.322;2023-01-31T18:13:41;6.50;99.90
65078;DHT22;51672;51.230;-2.322;2023-01-31T18:17:23;6.50;99.90
65078;DHT22;51672;51.230;-2.322;2023-01-31T18:21:10;6.50;99.90
65078;DHT22;51672;51.230;-2.322;2023-01-31T18:24:52;6.40;99.90
65078;DHT22;51672;51.230;-2.322;2023-01-31T18:28:35;6.40;99.90
65078;DHT22;51672;51.230;-2.322;2023-01-31T18:32:17;6.30;99.90
65078;DHT22;51672;51.230;-2.322;2023-01-31T18:36:01;6.30;99.90
65078;DHT22;51672;51.230;-2.322;2023-01-31T18:39:43;6.20;99.90
65078;DHT22;51672;51.230;-2.322;2023-01-31T18:43:25;6.20;99.90
65078;DHT22;51672;51.230;-2.322;2023-01-31T18:47:10;6.20;99.90
65078;DHT22;51672;51.230;-2.322;2023-01-31T18:50:52;6.10;99.90
65078;DHT22;51672;51.230;-2.322;2023-01-31T18:54:35;6.10;99.90
65078;DHT22;51672;51.230;-2.322;2023-01-31T18:58:18;6.00;99.90
65078;DHT22;51672;51.230;-2.322;2023-01-31T19:02:00;6.00;99.90
65078;DHT22;51672;51.230;-2.322;2023-01-31T19:05:42;6.00;99.90
65078;DHT22;51672;51.230;-2.322;2023-01-31T19:09:24;5.90;99.90
65078;DHT22;51672;51.230;-2.322;2023-01-31T19:13:06;5.90;99.90
65078;DHT22;51672;51.230;-2.322;2023-01-31T19:16:48;5.90;99.90
65078;DHT22;51672;51.230;-2.322;2023-01-31T19:20:30;5.80;99.90
65078;DHT22;51672;51.230;-2.322;2023-01-31T19:24:13;5.80;99.90
65078;DHT22;51672;51.230;-2.322;2023-01-31T19:27:56;5.80;99.90
65078;DHT22;51672;51.230;-2.322;2023-01-31T19:31:40;5.90;99.90
65078;DHT22;51672;51.230;-2.322;2023-01-31T19:35:23;5.90;99.90
65078;DHT22;51672;51.230;-2.322;2023-01-31T19:39:07;5.90;99.90
65078;DHT22;51672;51.230;-2.322;2023-01-31T19:42:50;5.90;99.90
65078;DHT22;51672;51.230;-2.322;2023-01-31T19:46:33;5.80;99.90
65078;DHT22;51672;51.230;-2.322;2023-01-31T19:50:16;5.80;99.90
65078;DHT22;51672;51.230;-2.322;2023-01-31T19:54:00;5.80;99.90
65078;DHT22;51672;51.230;-2.322;2023-01-31T19:57:44;5.90;99.90
65078;DHT22;51672;51.230;-2.322;2023-01-31T20:01:26;5.90;99.90
65078;DHT22;51672;51.230;-2.322;2023-01-31T20:05:09;5.90;99.90
65078;DHT22;51672;51.230;-2.322;2023-01-31T20:08:55;6.00;99.90
65078;DHT22;51672;51.230;-2.322;2023-01-31T20:12:37;6.10;99.90
65078;DHT22;51672;51.230;-2.322;2023-01-31T20:16:20;6.20;99.90
65078;DHT22;51672;51.230;-2.322;2023-01-31T20:20:03;6.30;99.90
65078;DHT22;51672;51.230;-2.322;2023-01-31T20:23:47;6.40;99.90
65078;DHT22;51672;51.230;-2.322;2023-01-31T20:27:32;6.60;99.90
65078;DHT22;51672;51.230;-2.322;2023-01-31T20:31:14;6.70;99.90
65078;DHT22;51672;51.230;-2.322;2023-01-31T20:34:57;6.70;99.90
65078;DHT22;51672;51.230;-2.322;2023-01-31T20:38:41;6.70;99.90
65078;DHT22;51672;51.230;-2.322;2023-01-31T20:42:23;6.60;99.90
65078;DHT22;51672;51.230;-2.322;2023-01-31T20:46:11;6.60;99.90
65078;DHT22;51672;51.230;-2.322;2023-01-31T20:49:53;6.60;99.90
65078;DHT22;51672;51.230;-2.322;2023-01-31T20:53:35;6.50;99.90
65078;DHT22;51672;51.230;-2.322;2023-01-31T20:57:18;6.50;99.90
65078;DHT22;51672;51.230;-2.322;2023-01-31T21:01:00;6.50;99.90
65078;DHT22;51672;51.230;-2.322;2023-01-31T21:04:46;6.50;99.90
65078;DHT22;51672;51.230;-2.322;2023-01-31T21:08:29;6.40;99.90
65078;DHT22;51672;51.230;-2.322;2023-01-31T21:12:12;6.40;99.90
65078;DHT22;51672;51.230;-2.322;2023-01-31T21:15:56;6.30;99.90
65078;DHT22;51672;51.230;-2.322;2023-01-31T21:19:39;6.30;99.90
65078;DHT22;51672;51.230;-2.322;2023-01-31T21:23:21;6.30;99.90
65078;DHT22;51672;51.230;-2.322;2023-01-31T21:27:04;6.30;99.90
65078;DHT22;51672;51.230;-2.322;2023-01-31T21:30:56;6.20;99.90
65078;DHT22;51672;51.230;-2.322;2023-01-31T21:34:39;6.20;99.90
65078;DHT22;51672;51.230;-2.322;2023-01-31T21:38:21;6.10;99.90
65078;DHT22;51672;51.230;-2.322;2023-01-31T21:42:03;6.10;99.90
65078;DHT22;51672;51.230;-2.322;2023-01-31T21:45:59;6.00;99.90
65078;DHT22;51672;51.230;-2.322;2023-01-31T21:49:41;6.10;99.90
65078;DHT22;51672;51.230;-2.322;2023-01-31T21:53:24;6.10;99.90
65078;DHT22;51672;51.230;-2.322;2023-01-31T21:57:09;6.10;99.90
65078;DHT22;51672;51.230;-2.322;2023-01-31T22:00:51;6.10;99.90
65078;DHT22;51672;51.230;-2.322;2023-01-31T22:04:33;6.10;99.90
65078;DHT22;51672;51.230;-2.322;2023-01-31T22:08:15;6.10;99.90
65078;DHT22;51672;51.230;-2.322;2023-01-31T22:11:57;6.30;99.90
65078;DHT22;51672;51.230;-2.322;2023-01-31T22:15:39;6.40;99.90
65078;DHT22;51672;51.230;-2.322;2023-01-31T22:19:21;6.50;99.90
65078;DHT22;51672;51.230;-2.322;2023-01-31T22:23:03;6.50;99.90
65078;DHT22;51672;51.230;-2.322;2023-01-31T22:26:45;6.40;99.90
65078;DHT22;51672;51.230;-2.322;2023-01-31T22:30:28;6.40;99.90
65078;DHT22;51672;51.230;-2.322;2023-01-31T22:34:12;6.40;99.90
65078;DHT22;51672;51.230;-2.322;2023-01-31T22:37:55;6.40;99.90
65078;DHT22;51672;51.230;-2.322;2023-01-31T22:41:37;6.50;99.90
65078;DHT22;51672;51.230;-2.322;2023-01-31T22:45:19;6.60;99.90
65078;DHT22;51672;51.230;-2.322;2023-01-31T22:49:01;6.70;99.90
65078;DHT22;51672;51.230;-2.322;2023-01-31T22:52:47;6.70;99.90
65078;DHT22;51672;51.230;-2.322;2023-01-31T22:56:30;6.70;99.90
65078;DHT22;51672;51.230;-2.322;2023-01-31T23:00:12;6.70;99.90
65078;DHT22;51672;51.230;-2.322;2023-01-31T23:03:56;6.60;99.90
65078;DHT22;51672;51.230;-2.322;2023-01-31T23:07:39;6.50;99.90
65078;DHT22;51672;51.230;-2.322;2023-01-31T23:11:21;6.50;99.90
65078;DHT22;51672;51.230;-2.322;2023-01-31T23:15:04;6.40;99.90
65078;DHT22;51672;51.230;-2.322;2023-01-31T23:18:46;6.30;99.90
65078;DHT22;51672;51.230;-2.322;2023-01-31T23:22:29;6.20;99.90
65078;DHT22;51672;51.230;-2.322;2023-01-31T23:26:11;6.20;99.90
65078;DHT22;51672;51.230;-2.322;2023-01-31T23:29:53;6.10;99.90
65078;DHT22;51672;51.230;-2.322;2023-01-31T23:33:35;6.10;99.90
65078;DHT22;51672;51.230;-2.322;2023-01-31T23:37:18;6.10;99.90
65078;DHT22;51672;51.230;-2.322;2023-01-31T23:41:01;6.10;99.90
65078;DHT22;51672;51.230;-2.322;2023-01-31T23:44:43;6.20;99.90
65078;DHT22;51672;51.230;-2.322;2023-01-31T23:48:25;6.20;99.90
65078;DHT22;51672;51.230;-2.322;2023-01-31T23:52:08;6.20;99.90
65078;DHT22;51672;51.230;-2.322;2023-01-31T23:55:50;6.20;99.90
65078;DHT22;51672;51.230;-2.322;2023-01-31T23:59:32;6.20;99.90
